PWSweather.com
Personal Weather Stations
Station Observations
THEQULMNR
A Mountain, Tucson, AZ 85713

A MountainTucson, AZ 85713

Lat: 32.205986, Lon: -111.001395

Elevation: 2440

Station Type: Netatmo

High Low Average
Temperature 104.5°F40.3°F 68.7°F20.4°F 89.7°F32.1°F
Dew Point 61.2°F16.2°F 34.7°F1.5°F 49.7°F9.8°F
Winds Calm -Calm - Calm Calm Calm Calm
Wind Gusts -- -- --
Humidity 19% 6% 11%
Pressure 30.05 in1017.60 in 29.90 in1012.50 in -
Precipitation 0.00 in0.00 in - -
Hour Temp Dew Point Humidity Winds Wind Gusts Pressure Precip Precip Rate Daily Precip Total
12:00 AM 80.8°F27.1°C 42.6°F5.9°C 12% - N N -- 30.03 in1016.9 mb 0.00 in0.0 mm 0.00 in0.0 mm 0.00 in0.0 mm
12:19 AM 79.7°F26.5°C 42.1°F5.6°C 13% - N N -- 30.03 in1016.9 mb 0.00 in0.0 mm 0.00 in0.0 mm 0.00 in0.0 mm
12:40 AM 78.8°F26.0°C 41.4°F5.2°C 13% - N N -- 30.03 in1016.9 mb 0.00 in0.0 mm 0.00 in0.0 mm 0.00 in0.0 mm
01:00 AM 78.1°F25.6°C 40.6°F4.8°C 13% - N N -- 30.03 in1016.9 mb 0.00 in0.0 mm 0.00 in0.0 mm 0.00 in0.0 mm
01:20 AM 77.4°F25.2°C 40.1°F4.5°C 13% - N N -- 30.03 in1016.9 mb 0.00 in0.0 mm 0.00 in0.0 mm 0.00 in0.0 mm
01:41 AM 76.6°F24.8°C 39.9°F4.4°C 14% - N N -- 30.02 in1016.6 mb 0.00 in0.0 mm 0.00 in0.0 mm 0.00 in0.0 mm
02:00 AM 75.6°F24.2°C 39.0°F3.9°C 14% - N N -- 30.02 in1016.6 mb 0.00 in0.0 mm 0.00 in0.0 mm 0.00 in0.0 mm
02:21 AM 74.7°F23.7°C 38.1°F3.4°C 14% - N N -- 30.02 in1016.6 mb 0.00 in0.0 mm 0.00 in0.0 mm 0.00 in0.0 mm
02:41 AM 73.8°F23.2°C 37.8°F3.2°C 15% - N N -- 30.02 in1016.6 mb 0.00 in0.0 mm 0.00 in0.0 mm 0.00 in0.0 mm
03:01 AM 73.0°F22.8°C 37.2°F2.9°C 15% - N N -- 30.02 in1016.6 mb 0.00 in0.0 mm 0.00 in0.0 mm 0.00 in0.0 mm
03:11 AM 72.5°F22.5°C 36.7°F2.6°C 15% - N N -- 30.02 in1016.6 mb 0.00 in0.0 mm 0.00 in0.0 mm 0.00 in0.0 mm
03:41 AM 71.2°F21.8°C 36.1°F2.3°C 16% - N N -- 30.02 in1016.6 mb 0.00 in0.0 mm 0.00 in0.0 mm 0.00 in0.0 mm
04:02 AM 70.5°F21.4°C 36.0°F2.2°C 17% - N N -- 30.02 in1016.6 mb 0.00 in0.0 mm 0.00 in0.0 mm 0.00 in0.0 mm
04:22 AM 70.0°F21.1°C 35.4°F1.9°C 17% - N N -- 30.02 in1016.6 mb 0.00 in0.0 mm 0.00 in0.0 mm 0.00 in0.0 mm
04:42 AM 69.6°F20.9°C 35.1°F1.7°C 17% - N N -- 30.03 in1016.9 mb 0.00 in0.0 mm 0.00 in0.0 mm 0.00 in0.0 mm
05:02 AM 69.1°F20.6°C 34.7°F1.5°C 17% - N N -- 30.03 in1016.9 mb 0.00 in0.0 mm 0.00 in0.0 mm 0.00 in0.0 mm
05:22 AM 68.9°F20.5°C 34.9°F1.6°C 18% - N N -- 30.03 in1016.9 mb 0.00 in0.0 mm 0.00 in0.0 mm 0.00 in0.0 mm
05:42 AM 68.7°F20.4°C 34.7°F1.5°C 18% - N N -- 30.03 in1016.9 mb 0.00 in0.0 mm 0.00 in0.0 mm 0.00 in0.0 mm
06:03 AM 68.7°F20.4°C 34.7°F1.5°C 18% - N N -- 30.04 in1017.3 mb 0.00 in0.0 mm 0.00 in0.0 mm 0.00 in0.0 mm
06:23 AM 71.2°F21.8°C 37.4°F3.0°C 19% - N N -- 30.04 in1017.3 mb 0.00 in0.0 mm 0.00 in0.0 mm 0.00 in0.0 mm
06:43 AM 75.2°F24.0°C 40.5°F4.7°C 18% - N N -- 30.04 in1017.3 mb 0.00 in0.0 mm 0.00 in0.0 mm 0.00 in0.0 mm
07:04 AM 79.3°F26.3°C 43.2°F6.2°C 16% - N N -- 30.05 in1017.6 mb 0.00 in0.0 mm 0.00 in0.0 mm 0.00 in0.0 mm
07:23 AM 82.9°F28.3°C 45.3°F7.4°C 14% - N N -- 30.05 in1017.6 mb 0.00 in0.0 mm 0.00 in0.0 mm 0.00 in0.0 mm
07:44 AM 86.4°F30.2°C 48.4°F9.1°C 14% - N N -- 30.05 in1017.6 mb 0.00 in0.0 mm 0.00 in0.0 mm 0.00 in0.0 mm
08:03 AM 89.4°F31.9°C 50.5°F10.3°C 13% - N N -- 30.05 in1017.6 mb 0.00 in0.0 mm 0.00 in0.0 mm 0.00 in0.0 mm
08:24 AM 92.8°F33.8°C 53.1°F11.7°C 12% - N N -- 30.05 in1017.6 mb 0.00 in0.0 mm 0.00 in0.0 mm 0.00 in0.0 mm
08:44 AM 95.0°F35.0°C 54.0°F12.2°C 10% - N N -- 30.05 in1017.6 mb 0.00 in0.0 mm 0.00 in0.0 mm 0.00 in0.0 mm
09:04 AM 96.8°F36.0°C 55.4°F13.0°C 10% - N N -- 30.05 in1017.6 mb 0.00 in0.0 mm 0.00 in0.0 mm 0.00 in0.0 mm
09:25 AM 98.1°F36.7°C 56.5°F13.6°C 10% - N N -- 30.04 in1017.3 mb 0.00 in0.0 mm 0.00 in0.0 mm 0.00 in0.0 mm
09:44 AM 99.3°F37.4°C 57.6°F14.2°C 10% - N N -- 30.04 in1017.3 mb 0.00 in0.0 mm 0.00 in0.0 mm 0.00 in0.0 mm
10:05 AM 100.8°F38.2°C 58.8°F14.9°C 10% - N N -- 30.04 in1017.3 mb 0.00 in0.0 mm 0.00 in0.0 mm 0.00 in0.0 mm
10:24 AM 101.8°F38.8°C 60.3°F15.7°C 11% - N N -- 30.04 in1017.3 mb 0.00 in0.0 mm 0.00 in0.0 mm 0.00 in0.0 mm
10:45 AM 103.3°F39.6°C 61.0°F16.1°C 10% - N N -- 30.03 in1016.9 mb 0.00 in0.0 mm 0.00 in0.0 mm 0.00 in0.0 mm
11:05 AM 103.5°F39.7°C 61.2°F16.2°C 10% - N N -- 30.03 in1016.9 mb 0.00 in0.0 mm 0.00 in0.0 mm 0.00 in0.0 mm
11:25 AM 102.2°F39.0°C 60.1°F15.6°C 10% - N N -- 30.02 in1016.6 mb 0.00 in0.0 mm 0.00 in0.0 mm 0.00 in0.0 mm
11:46 AM 102.0°F38.9°C 59.9°F15.5°C 10% - N N -- 30.02 in1016.6 mb 0.00 in0.0 mm 0.00 in0.0 mm 0.00 in0.0 mm
12:05 PM 102.0°F38.9°C 59.9°F15.5°C 10% - N N -- 30.01 in1016.3 mb 0.00 in0.0 mm 0.00 in0.0 mm 0.00 in0.0 mm
12:26 PM 102.6°F39.2°C 60.4°F15.8°C 10% - N N -- 30.01 in1016.3 mb 0.00 in0.0 mm 0.00 in0.0 mm 0.00 in0.0 mm
12:46 PM 102.9°F39.4°C 60.3°F15.7°C 9% - N N -- 30.00 in1015.9 mb 0.00 in0.0 mm 0.00 in0.0 mm 0.00 in0.0 mm
01:06 PM 103.3°F39.6°C 60.6°F15.9°C 9% - N N -- 29.99 in1015.6 mb 0.00 in0.0 mm 0.00 in0.0 mm 0.00 in0.0 mm
01:26 PM 104.4°F40.2°C 61.0°F16.1°C 8% - N N -- 29.98 in1015.2 mb 0.00 in0.0 mm 0.00 in0.0 mm 0.00 in0.0 mm
01:47 PM 104.5°F40.3°C 61.2°F16.2°C 8% - N N -- 29.98 in1015.2 mb 0.00 in0.0 mm 0.00 in0.0 mm 0.00 in0.0 mm
02:07 PM 103.6°F39.8°C 60.4°F15.8°C 8% - N N -- 29.96 in1014.6 mb 0.00 in0.0 mm 0.00 in0.0 mm 0.00 in0.0 mm
02:27 PM 104.0°F40.0°C 60.3°F15.7°C 7% - N N -- 29.96 in1014.6 mb 0.00 in0.0 mm 0.00 in0.0 mm 0.00 in0.0 mm
02:47 PM 104.0°F40.0°C 60.3°F15.7°C 7% - N N -- 29.95 in1014.2 mb 0.00 in0.0 mm 0.00 in0.0 mm 0.00 in0.0 mm
02:57 PM 104.0°F40.0°C 60.3°F15.7°C 7% - N N -- 29.95 in1014.2 mb 0.00 in0.0 mm 0.00 in0.0 mm 0.00 in0.0 mm
03:28 PM 103.5°F39.7°C 59.2°F15.1°C 6% - N N -- 29.94 in1013.9 mb 0.00 in0.0 mm 0.00 in0.0 mm 0.00 in0.0 mm
03:47 PM 103.1°F39.5°C 59.0°F15.0°C 6% - N N -- 29.93 in1013.5 mb 0.00 in0.0 mm 0.00 in0.0 mm 0.00 in0.0 mm
04:08 PM 102.4°F39.1°C 58.3°F14.6°C 6% - N N -- 29.92 in1013.2 mb 0.00 in0.0 mm 0.00 in0.0 mm 0.00 in0.0 mm
04:18 PM 102.2°F39.0°C 58.1°F14.5°C 6% - N N -- 29.92 in1013.2 mb 0.00 in0.0 mm 0.00 in0.0 mm 0.00 in0.0 mm
04:38 PM 102.0°F38.9°C 58.1°F14.5°C 6% - N N -- 29.92 in1013.2 mb 0.00 in0.0 mm 0.00 in0.0 mm 0.00 in0.0 mm
04:58 PM 101.1°F38.4°C 57.2°F14.0°C 6% - N N -- 29.91 in1012.9 mb 0.00 in0.0 mm 0.00 in0.0 mm 0.00 in0.0 mm
05:18 PM 100.8°F38.2°C 57.4°F14.1°C 7% - N N -- 29.91 in1012.9 mb 0.00 in0.0 mm 0.00 in0.0 mm 0.00 in0.0 mm
05:38 PM 100.2°F37.9°C 57.0°F13.9°C 7% - N N -- 29.91 in1012.9 mb 0.00 in0.0 mm 0.00 in0.0 mm 0.00 in0.0 mm
05:59 PM 99.5°F37.5°C 56.3°F13.5°C 7% - N N -- 29.90 in1012.5 mb 0.00 in0.0 mm 0.00 in0.0 mm 0.00 in0.0 mm
06:19 PM 98.6°F37.0°C 55.0°F12.8°C 6% - N N -- 29.90 in1012.5 mb 0.00 in0.0 mm 0.00 in0.0 mm 0.00 in0.0 mm
06:39 PM 97.9°F36.6°C 54.5°F12.5°C 6% - N N -- 29.91 in1012.9 mb 0.00 in0.0 mm 0.00 in0.0 mm 0.00 in0.0 mm
06:59 PM 96.8°F36.0°C 53.6°F12.0°C 6% - N N -- 29.91 in1012.9 mb 0.00 in0.0 mm 0.00 in0.0 mm 0.00 in0.0 mm
07:19 PM 95.5°F35.3°C 52.5°F11.4°C 6% - N N -- 29.91 in1012.9 mb 0.00 in0.0 mm 0.00 in0.0 mm 0.00 in0.0 mm
07:40 PM 94.3°F34.6°C 51.4°F10.8°C 6% - N N -- 29.92 in1013.2 mb 0.00 in0.0 mm 0.00 in0.0 mm 0.00 in0.0 mm
07:59 PM 92.8°F33.8°C 50.7°F10.4°C 7% - N N -- 29.93 in1013.5 mb 0.00 in0.0 mm 0.00 in0.0 mm 0.00 in0.0 mm
08:20 PM 91.4°F33.0°C 49.5°F9.7°C 7% - N N -- 29.93 in1013.5 mb 0.00 in0.0 mm 0.00 in0.0 mm 0.00 in0.0 mm
08:40 PM 90.3°F32.4°C 48.6°F9.2°C 7% - N N -- 29.94 in1013.9 mb 0.00 in0.0 mm 0.00 in0.0 mm 0.00 in0.0 mm
09:00 PM 89.1°F31.7°C 47.5°F8.6°C 7% - N N -- 29.95 in1014.2 mb 0.00 in0.0 mm 0.00 in0.0 mm 0.00 in0.0 mm
09:21 PM 88.0°F31.1°C 46.6°F8.1°C 7% - N N -- 29.96 in1014.6 mb 0.00 in0.0 mm 0.00 in0.0 mm 0.00 in0.0 mm
09:40 PM 86.7°F30.4°C 45.9°F7.7°C 8% - N N -- 29.96 in1014.6 mb 0.00 in0.0 mm 0.00 in0.0 mm 0.00 in0.0 mm
10:01 PM 86.5°F30.3°C 46.6°F8.1°C 10% - N N -- 29.97 in1014.9 mb 0.00 in0.0 mm 0.00 in0.0 mm 0.00 in0.0 mm
10:20 PM 86.2°F30.1°C 46.4°F8.0°C 10% - N N -- 29.98 in1015.2 mb 0.00 in0.0 mm 0.00 in0.0 mm 0.00 in0.0 mm
10:41 PM 85.5°F29.7°C 46.2°F7.9°C 11% - N N -- 29.98 in1015.2 mb 0.00 in0.0 mm 0.00 in0.0 mm 0.00 in0.0 mm
11:01 PM 84.7°F29.3°C 46.0°F7.8°C 12% - N N -- 29.98 in1015.2 mb 0.00 in0.0 mm 0.00 in0.0 mm 0.00 in0.0 mm
11:21 PM 84.7°F29.3°C 46.0°F7.8°C 12% - N N -- 29.99 in1015.6 mb 0.00 in0.0 mm 0.00 in0.0 mm 0.00 in0.0 mm
11:42 PM 83.5°F28.6°C 45.0°F7.2°C 12% - N N -- 29.99 in1015.6 mb 0.00 in0.0 mm 0.00 in0.0 mm 0.00 in0.0 mm